Time;durP1;ratioP1;P1;durP2;ratioP2;P2;SDS_P1;SDS_P2;PMS_P1;PMS_P2;Temp;Humidity;BMP_temperature;BMP_pressure;BME280_temperature;BME280_humidity;BME280_pressure;Samples;Min_cycle;Max_cycle;Signal;HPM_P1;HPM_P2
2021/12/31 00:00:50;;;;;;;8.63;3.50;;;14.30;99.90;;;;;;5096687;28;20019;-79
2021/12/31 00:03:16;;;;;;;14.82;4.28;;;14.30;99.90;;;;;;5113764;28;20031;-79
2021/12/31 00:05:43;;;;;;;7.28;2.92;;;14.30;99.90;;;;;;5113519;28;20027;-79
2021/12/31 00:08:09;;;;;;;8.88;3.60;;;14.30;99.90;;;;;;5097214;28;20028;-79
2021/12/31 00:10:35;;;;;;;11.80;4.07;;;14.30;99.90;;;;;;5114760;28;20031;-78
2021/12/31 00:13:01;;;;;;;10.75;3.42;;;14.30;99.90;;;;;;5113508;28;20459;-78
2021/12/31 00:15:26;;;;;;;10.68;2.80;;;14.30;99.90;;;;;;5114466;28;20141;-80
2021/12/31 00:17:52;;;;;;;8.48;2.78;;;14.30;99.90;;;;;;5113635;28;20438;-78
2021/12/31 00:20:22;;;;;;;8.15;2.28;;;14.30;99.90;;;;;;5114630;28;20027;-78
2021/12/31 00:25:18;;;;;;;7.57;2.13;;;14.30;99.90;;;;;;5113271;28;20031;-81
2021/12/31 00:27:44;;;;;;;11.10;3.20;;;14.30;99.90;;;;;;5113053;28;20380;-79
2021/12/31 00:30:10;;;;;;;7.68;3.03;;;14.30;99.90;;;;;;5114340;28;20031;-82
2021/12/31 00:32:36;;;;;;;11.98;2.55;;;14.30;99.90;;;;;;5113134;28;20020;-78
2021/12/31 00:35:01;;;;;;;12.02;2.95;;;14.30;99.90;;;;;;5114362;28;20026;-78
2021/12/31 00:37:29;;;;;;;8.60;1.88;;;14.30;99.80;;;;;;5112779;28;20127;-78
2021/12/31 00:39:55;;;;;;;6.97;2.08;;;14.30;99.80;;;;;;5114029;28;20074;-79
2021/12/31 00:42:21;;;;;;;7.75;2.40;;;14.30;99.90;;;;;;5114445;28;20036;-82
2021/12/31 00:44:47;;;;;;;8.43;2.38;;;14.30;99.80;;;;;;5112107;28;20043;-79
2021/12/31 00:47:12;;;;;;;7.82;1.67;;;14.30;99.60;;;;;;5113318;28;20027;-79
2021/12/31 00:49:41;;;;;;;9.65;2.10;;;14.30;99.60;;;;;;5114025;28;20402;-78
2021/12/31 00:52:07;;;;;;;6.20;1.63;;;14.30;99.50;;;;;;5113797;28;20044;-78
2021/12/31 00:54:34;;;;;;;7.78;1.98;;;14.30;99.50;;;;;;5113052;28;20149;-78
2021/12/31 00:57:03;;;;;;;11.07;2.58;;;14.40;99.50;;;;;;5112798;28;20201;-77
2021/12/31 00:59:31;;;;;;;6.85;1.80;;;14.40;99.40;;;;;;5113881;28;20027;-78
2021/12/31 01:01:57;;;;;;;6.70;1.80;;;14.30;99.40;;;;;;5113822;28;20046;-79
2021/12/31 01:04:23;;;;;;;10.98;1.75;;;14.30;99.40;;;;;;5113736;28;20110;-78
2021/12/31 01:06:49;;;;;;;6.47;1.75;;;14.30;99.40;;;;;;5095997;28;20467;-78
2021/12/31 01:09:15;;;;;;;6.10;1.70;;;14.30;99.40;;;;;;5095713;28;20038;-78
2021/12/31 01:11:43;;;;;;;6.32;1.40;;;14.30;99.40;;;;;;5095660;28;20036;-79
2021/12/31 01:14:20;;;;;;;8.05;1.92;;;14.30;99.30;;;;;;5112519;28;20081;-79
2021/12/31 01:16:50;;;;;;;4.97;1.30;;;14.30;99.20;;;;;;5113983;28;20027;-78
2021/12/31 01:21:42;;;;;;;6.80;1.65;;;14.30;99.20;;;;;;5113908;28;20040;-80
2021/12/31 01:24:11;;;;;;;6.22;1.70;;;14.40;99.10;;;;;;5113558;28;20038;-79
2021/12/31 01:26:36;;;;;;;6.20;1.73;;;14.30;99.00;;;;;;5096100;28;20085;-79
2021/12/31 01:29:02;;;;;;;7.03;1.58;;;14.40;99.00;;;;;;5095696;28;20028;-81
2021/12/31 01:31:28;;;;;;;12.95;1.80;;;14.30;99.00;;;;;;5112509;28;20375;-78
2021/12/31 01:33:54;;;;;;;8.10;1.63;;;14.30;99.00;;;;;;5112413;28;20028;-79
2021/12/31 01:36:19;;;;;;;8.45;1.63;;;14.30;99.00;;;;;;5095267;28;20467;-78
2021/12/31 01:38:45;;;;;;;6.72;1.30;;;14.30;99.00;;;;;;5095243;28;20073;-78
2021/12/31 01:41:11;;;;;;;6.97;1.80;;;14.30;99.00;;;;;;5113462;28;20035;-78
2021/12/31 01:43:38;;;;;;;6.07;1.50;;;14.30;99.00;;;;;;5113569;28;20032;-79
2021/12/31 01:46:11;;;;;;;6.70;1.17;;;14.30;99.00;;;;;;5113331;28;20039;-79
2021/12/31 01:51:22;;;;;;;5.53;1.27;;;14.30;98.90;;;;;;5113418;28;20399;-78
2021/12/31 01:53:47;;;;;;;6.22;1.50;;;14.30;98.90;;;;;;5113377;28;20039;-79
2021/12/31 01:56:14;;;;;;;5.65;1.60;;;14.30;98.90;;;;;;5113024;28;20539;-78
2021/12/31 01:58:41;;;;;;;5.60;1.35;;;14.30;98.90;;;;;;5116026;28;20058;-78
2021/12/31 02:01:07;;;;;;;7.97;1.58;;;14.30;98.80;;;;;;5116076;28;20077;-75
2021/12/31 02:03:34;;;;;;;7.43;1.30;;;14.40;98.80;;;;;;5117105;28;20429;-74
2021/12/31 02:06:00;;;;;;;5.60;1.50;;;14.40;98.70;;;;;;5117136;28;20072;-79
2021/12/31 02:08:27;;;;;;;6.05;1.00;;;14.30;98.60;;;;;;5117298;28;20028;-80
2021/12/31 02:10:53;;;;;;;3.80;1.13;;;14.40;98.60;;;;;;5117033;28;20027;-78
2021/12/31 02:13:20;;;;;;;5.25;1.00;;;14.40;98.50;;;;;;5115674;28;20390;-83
2021/12/31 02:15:46;;;;;;;4.47;0.93;;;14.30;98.40;;;;;;5116955;28;20379;-79
2021/12/31 02:18:12;;;;;;;6.28;1.20;;;14.40;98.40;;;;;;5116798;28;20057;-79
2021/12/31 02:20:45;;;;;;;7.47;1.23;;;14.40;98.30;;;;;;5115642;28;20039;-79
2021/12/31 02:23:20;;;;;;;6.72;1.13;;;14.40;98.20;;;;;;5115579;28;20023;-78
2021/12/31 02:25:46;;;;;;;5.90;1.23;;;14.40;98.20;;;;;;5115576;28;20080;-79
2021/12/31 02:28:12;;;;;;;6.75;1.00;;;14.40;98.10;;;;;;5115622;28;20360;-84
2021/12/31 02:30:38;;;;;;;5.00;1.00;;;14.40;98.10;;;;;;5116275;28;20035;-78
2021/12/31 02:33:04;;;;;;;8.32;1.05;;;14.40;98.00;;;;;;5098231;28;20024;-78
2021/12/31 02:35:32;;;;;;;6.07;1.00;;;14.40;97.90;;;;;;5115151;28;20019;-78
2021/12/31 02:37:58;;;;;;;8.95;1.17;;;14.50;97.90;;;;;;5116218;28;20050;-79
2021/12/31 02:40:25;;;;;;;7.53;1.17;;;14.50;97.80;;;;;;5116483;28;20028;-78
2021/12/31 02:42:50;;;;;;;4.43;1.27;;;14.50;97.70;;;;;;5116582;28;20452;-79
2021/12/31 02:45:16;;;;;;;5.10;1.27;;;14.50;97.70;;;;;;5115216;28;20028;-78
2021/12/31 02:47:45;;;;;;;3.20;1.00;;;14.50;98.00;;;;;;5116348;28;20042;-78
2021/12/31 02:50:17;;;;;;;6.70;0.95;;;14.50;97.70;;;;;;5116166;28;20418;-78
2021/12/31 02:52:44;;;;;;;8.93;1.42;;;14.50;97.60;;;;;;5115168;28;20148;-78
2021/12/31 02:55:11;;;;;;;8.90;1.55;;;14.50;97.60;;;;;;5116146;28;20480;-78
2021/12/31 02:57:41;;;;;;;5.05;1.27;;;14.50;97.40;;;;;;5115175;28;20023;-81
2021/12/31 03:00:08;;;;;;;7.22;1.00;;;14.50;97.40;;;;;;5114983;28;20396;-80
2021/12/31 03:02:37;;;;;;;5.40;1.00;;;14.50;97.30;;;;;;5116059;28;20019;-78
2021/12/31 03:05:02;;;;;;;5.32;1.00;;;14.50;97.30;;;;;;5114427;28;20032;-79
2021/12/31 03:07:30;;;;;;;3.53;0.95;;;14.50;97.30;;;;;;5114537;28;20118;-79
2021/12/31 03:09:58;;;;;;;6.70;1.30;;;14.60;97.20;;;;;;5115749;28;20027;-80
2021/12/31 03:12:24;;;;;;;5.47;1.10;;;14.60;97.20;;;;;;5115776;28;20431;-79
2021/12/31 03:14:50;;;;;;;7.32;1.67;;;14.60;97.10;;;;;;5097566;28;20392;-78
2021/12/31 03:17:17;;;;;;;5.03;0.93;;;14.50;97.00;;;;;;5114604;28;20031;-79
2021/12/31 03:19:43;;;;;;;5.43;0.90;;;14.50;97.20;;;;;;5115583;28;20486;-81
2021/12/31 03:22:09;;;;;;;6.85;1.15;;;14.60;96.80;;;;;;5115683;28;20044;-84
2021/12/31 03:24:35;;;;;;;5.30;0.85;;;14.60;96.90;;;;;;5115462;28;20035;-74
2021/12/31 03:27:01;;;;;;;4.47;0.82;;;14.60;96.90;;;;;;5097527;28;20042;-74
2021/12/31 03:29:26;;;;;;;4.28;0.73;;;14.60;96.90;;;;;;5080557;28;20031;-73
2021/12/31 03:31:52;;;;;;;6.30;1.00;;;14.60;96.80;;;;;;5115489;28;20110;-74
2021/12/31 03:34:18;;;;;;;3.38;0.95;;;14.60;96.70;;;;;;5113870;28;20024;-75
2021/12/31 03:36:44;;;;;;;5.47;1.08;;;14.60;96.60;;;;;;5114464;28;20101;-74
2021/12/31 03:39:10;;;;;;;4.78;0.82;;;14.60;96.60;;;;;;5114046;28;20073;-75
2021/12/31 03:41:36;;;;;;;6.20;1.30;;;14.60;96.50;;;;;;5115564;28;20437;-73
2021/12/31 03:44:04;;;;;;;4.57;0.88;;;14.60;96.60;;;;;;5115160;28;20388;-74
2021/12/31 03:46:29;;;;;;;5.75;1.30;;;14.60;96.60;;;;;;5115355;28;20403;-74
2021/12/31 03:48:55;;;;;;;5.72;0.80;;;14.60;96.50;;;;;;5113897;28;20036;-74
2021/12/31 03:51:21;;;;;;;5.72;1.17;;;14.60;96.50;;;;;;5113945;28;20443;-73
2021/12/31 03:53:47;;;;;;;3.88;1.00;;;14.60;96.40;;;;;;5115113;28;20024;-74
2021/12/31 03:56:12;;;;;;;4.97;0.93;;;14.50;96.40;;;;;;5114086;28;20161;-73
2021/12/31 03:58:38;;;;;;;4.43;0.82;;;14.50;96.40;;;;;;5113870;28;20047;-74
2021/12/31 04:01:04;;;;;;;4.75;0.95;;;14.60;96.30;;;;;;5079659;28;20471;-74
2021/12/31 04:03:30;;;;;;;4.50;0.90;;;14.60;96.40;;;;;;5115006;28;20387;-74
2021/12/31 04:05:55;;;;;;;5.35;1.23;;;14.60;96.40;;;;;;5114477;28;20038;-74
2021/12/31 04:08:21;;;;;;;6.90;1.23;;;14.50;96.40;;;;;;5113550;28;20403;-74
2021/12/31 04:10:47;;;;;;;3.50;1.08;;;14.50;96.40;;;;;;5079698;28;20030;-74
2021/12/31 04:13:13;;;;;;;6.03;1.33;;;14.50;96.30;;;;;;5114745;28;20024;-74
2021/12/31 04:15:39;;;;;;;6.78;1.38;;;14.50;96.30;;;;;;5113836;28;20030;-74
2021/12/31 04:18:04;;;;;;;6.32;1.10;;;14.50;96.30;;;;;;5114503;28;20024;-73
2021/12/31 04:20:37;;;;;;;5.38;1.23;;;14.50;96.40;;;;;;5113400;28;20082;-74
2021/12/31 04:23:10;;;;;;;6.00;1.23;;;14.50;96.30;;;;;;5097079;28;20030;-74
2021/12/31 04:25:37;;;;;;;3.45;0.98;;;14.50;96.30;;;;;;5114691;28;20012;-74
2021/12/31 04:28:03;;;;;;;7.18;1.52;;;14.50;96.30;;;;;;5096626;28;20471;-74
2021/12/31 04:30:29;;;;;;;5.22;1.23;;;14.40;96.30;;;;;;5113121;28;20065;-74
2021/12/31 04:32:55;;;;;;;6.13;1.33;;;14.40;96.30;;;;;;5114179;28;20031;-78
2021/12/31 04:35:20;;;;;;;5.82;1.00;;;14.40;96.40;;;;;;5114053;28;20429;-80
2021/12/31 04:37:46;;;;;;;3.78;0.90;;;14.40;96.40;;;;;;5112702;28;20480;-79
2021/12/31 04:40:13;;;;;;;5.75;0.90;;;14.40;96.50;;;;;;5112888;28;20458;-80
2021/12/31 04:42:41;;;;;;;5.18;1.10;;;14.40;96.50;;;;;;5113063;28;20038;-78
2021/12/31 04:45:09;;;;;;;8.52;1.63;;;14.40;96.50;;;;;;5112775;28;20399;-79
2021/12/31 04:47:34;;;;;;;9.35;1.38;;;14.40;96.50;;;;;;5113700;28;20036;-79
2021/12/31 04:50:00;;;;;;;4.35;1.20;;;14.40;96.50;;;;;;5113038;28;20031;-78
2021/12/31 04:52:26;;;;;;;6.45;1.15;;;14.40;96.50;;;;;;5113924;28;20031;-78
2021/12/31 04:54:51;;;;;;;3.88;1.10;;;14.40;96.50;;;;;;5095960;28;20031;-78
2021/12/31 04:57:17;;;;;;;5.10;1.20;;;14.40;96.60;;;;;;5113910;28;20041;-79
2021/12/31 04:59:42;;;;;;;3.53;1.33;;;14.40;96.50;;;;;;5112967;28;20078;-80
2021/12/31 05:02:08;;;;;;;6.90;1.65;;;14.40;96.40;;;;;;5112677;28;20096;-79
2021/12/31 05:04:33;;;;;;;4.40;1.35;;;14.30;96.40;;;;;;5113758;28;20035;-78
2021/12/31 05:06:59;;;;;;;5.00;1.08;;;14.40;96.40;;;;;;5112789;28;20431;-78
2021/12/31 05:09:25;;;;;;;7.47;1.50;;;14.30;96.40;;;;;;5112476;28;20038;-79
2021/12/31 05:11:50;;;;;;;5.13;1.40;;;14.40;96.40;;;;;;5095172;28;20031;-81
2021/12/31 05:14:17;;;;;;;4.82;1.30;;;14.30;96.40;;;;;;5113512;28;20028;-78
2021/12/31 05:16:42;;;;;;;6.43;1.58;;;14.30;96.50;;;;;;5095606;28;20032;-74
2021/12/31 05:19:08;;;;;;;6.70;1.17;;;14.30;96.50;;;;;;5094594;28;20486;-75
2021/12/31 05:21:33;;;;;;;7.45;1.45;;;14.30;96.50;;;;;;5072061;28;20395;-74
2021/12/31 05:23:59;;;;;;;5.50;1.40;;;14.30;96.40;;;;;;5092139;28;20472;-74
2021/12/31 05:26:25;;;;;;;8.00;1.48;;;14.30;96.70;;;;;;5075362;28;20035;-74
2021/12/31 05:28:51;;;;;;;4.68;1.88;;;14.30;96.50;;;;;;5093383;28;20491;-73
2021/12/31 05:31:17;;;;;;;8.20;1.58;;;14.30;96.50;;;;;;5076375;28;20036;-74
2021/12/31 05:33:42;;;;;;;4.22;1.23;;;14.30;96.50;;;;;;5096416;28;20024;-79
2021/12/31 05:36:08;;;;;;;4.57;1.30;;;14.20;96.50;;;;;;5096198;28;20032;-78
2021/12/31 05:38:34;;;;;;;7.15;1.70;;;14.30;96.50;;;;;;5095838;28;20071;-79
2021/12/31 05:41:00;;;;;;;8.93;1.83;;;14.30;96.50;;;;;;5079059;28;20035;-78
2021/12/31 05:43:26;;;;;;;5.32;1.27;;;14.20;96.50;;;;;;5096945;28;20081;-79
2021/12/31 05:45:51;;;;;;;5.20;1.40;;;14.30;96.50;;;;;;5096840;28;20476;-79
2021/12/31 05:48:17;;;;;;;4.80;1.25;;;14.20;96.50;;;;;;5096876;28;20480;-79
2021/12/31 05:50:42;;;;;;;5.20;1.73;;;14.20;96.50;;;;;;5095650;28;20032;-78
2021/12/31 05:53:08;;;;;;;8.20;2.33;;;14.20;96.50;;;;;;5078754;28;20069;-79
2021/12/31 05:55:34;;;;;;;3.67;1.45;;;14.20;96.50;;;;;;5097261;28;20024;-80
2021/12/31 05:58:02;;;;;;;5.35;1.60;;;14.20;96.50;;;;;;5096984;28;20556;-79
2021/12/31 06:00:28;;;;;;;8.93;1.92;;;14.20;96.60;;;;;;5097125;28;20480;-79
2021/12/31 06:02:55;;;;;;;4.43;1.52;;;14.10;96.50;;;;;;5095742;28;20027;-77
2021/12/31 06:05:22;;;;;;;6.10;1.50;;;14.10;96.60;;;;;;5113561;28;20426;-75
2021/12/31 06:07:48;;;;;;;6.45;1.58;;;14.10;96.50;;;;;;5116044;28;20485;-79
2021/12/31 06:10:13;;;;;;;7.47;1.75;;;14.10;96.50;;;;;;5117273;28;20095;-79
2021/12/31 06:12:41;;;;;;;5.63;1.55;;;14.10;96.50;;;;;;5115779;28;20143;-78
2021/12/31 06:15:09;;;;;;;5.45;1.42;;;14.10;96.50;;;;;;5116045;28;20527;-78
2021/12/31 06:17:34;;;;;;;7.80;1.70;;;14.10;96.50;;;;;;5098976;28;20208;-78
2021/12/31 06:20:00;;;;;;;5.40;1.50;;;14.10;96.50;;;;;;5115445;28;20139;-78
2021/12/31 06:22:26;;;;;;;4.95;1.25;;;14.10;96.50;;;;;;5115331;28;20039;-78
2021/12/31 06:24:52;;;;;;;8.73;2.05;;;14.10;96.40;;;;;;5116735;28;20107;-81
2021/12/31 06:27:18;;;;;;;7.75;1.70;;;14.10;96.50;;;;;;5115751;28;20115;-78
2021/12/31 06:29:44;;;;;;;6.57;1.23;;;14.10;96.40;;;;;;5098483;28;20027;-79
2021/12/31 06:32:09;;;;;;;5.38;1.75;;;14.10;96.50;;;;;;5115308;28;20028;-78
2021/12/31 06:34:35;;;;;;;7.65;1.75;;;14.10;96.40;;;;;;5116236;28;20081;-79
2021/12/31 06:37:01;;;;;;;7.50;1.58;;;14.10;96.40;;;;;;5097944;28;20123;-79
2021/12/31 06:39:27;;;;;;;4.07;1.25;;;14.10;96.30;;;;;;5116864;28;20467;-78
2021/12/31 06:41:54;;;;;;;6.80;1.58;;;14.00;96.30;;;;;;5116376;28;20032;-78
2021/12/31 06:44:20;;;;;;;4.47;1.33;;;14.00;96.30;;;;;;5102166;28;20384;-78
2021/12/31 06:46:46;;;;;;;4.65;1.67;;;14.00;96.30;;;;;;5115415;28;20032;-82
2021/12/31 06:49:11;;;;;;;5.25;1.67;;;13.90;96.30;;;;;;5089443;28;20033;-81
2021/12/31 06:51:37;;;;;;;4.80;1.25;;;13.90;96.20;;;;;;5111133;28;20111;-79
2021/12/31 06:54:03;;;;;;;5.55;1.50;;;13.80;96.20;;;;;;5094272;28;20021;-79
2021/12/31 06:56:29;;;;;;;6.40;1.40;;;13.80;96.20;;;;;;5111881;28;20486;-79
2021/12/31 06:58:55;;;;;;;8.05;1.40;;;13.80;96.20;;;;;;5109980;28;20031;-78
2021/12/31 07:01:21;;;;;;;4.10;1.13;;;13.70;96.20;;;;;;5107491;28;20027;-78
2021/12/31 07:03:47;;;;;;;6.57;1.75;;;13.70;96.30;;;;;;5103444;28;21087;-79
2021/12/31 07:06:12;;;;;;;6.80;1.67;;;13.70;96.40;;;;;;5103610;28;20035;-79
2021/12/31 07:08:39;;;;;;;4.20;1.30;;;13.60;96.40;;;;;;5077350;28;20468;-80
2021/12/31 07:11:05;;;;;;;4.95;1.00;;;13.60;96.40;;;;;;5093986;28;20035;-78
2021/12/31 07:13:30;;;;;;;4.35;1.40;;;13.50;96.40;;;;;;5077247;28;20024;-80
2021/12/31 07:15:56;;;;;;;4.75;1.48;;;13.50;96.70;;;;;;5114019;28;20032;-78
2021/12/31 07:18:23;;;;;;;6.00;1.73;;;13.50;96.50;;;;;;5087592;28;20031;-80
2021/12/31 07:20:49;;;;;;;6.07;1.45;;;13.50;96.50;;;;;;5115151;28;20024;-80
2021/12/31 07:23:17;;;;;;;8.98;1.40;;;13.40;96.50;;;;;;5114299;28;20068;-79
2021/12/31 07:25:43;;;;;;;4.63;1.42;;;13.40;96.50;;;;;;5115869;28;20028;-79
2021/12/31 07:28:11;;;;;;;9.77;2.03;;;13.40;96.60;;;;;;5097582;28;20031;-79
2021/12/31 07:30:37;;;;;;;5.22;1.40;;;13.40;96.60;;;;;;5111887;28;20031;-78
2021/12/31 07:33:03;;;;;;;8.02;1.67;;;13.30;96.60;;;;;;5114203;28;20019;-78
2021/12/31 07:35:33;;;;;;;4.88;1.13;;;13.30;96.60;;;;;;5108695;28;20031;-77
2021/12/31 07:37:59;;;;;;;6.07;1.67;;;13.30;96.70;;;;;;5114040;28;20162;-79
2021/12/31 07:40:39;;;;;;;9.23;1.60;;;13.30;96.70;;;;;;5114014;28;20106;-80
2021/12/31 07:43:06;;;;;;;7.43;2.13;;;13.20;96.70;;;;;;5097775;28;20025;-79
2021/12/31 07:45:32;;;;;;;6.63;1.80;;;13.30;96.80;;;;;;5107055;28;20027;-78
2021/12/31 07:47:58;;;;;;;5.95;1.42;;;13.20;96.80;;;;;;5109295;28;20482;-78
2021/12/31 07:50:24;;;;;;;6.03;1.88;;;13.20;96.80;;;;;;5076344;28;20093;-81
2021/12/31 07:52:49;;;;;;;4.45;1.58;;;13.10;96.80;;;;;;5105432;28;20472;-79
2021/12/31 07:55:15;;;;;;;3.58;1.42;;;13.20;96.90;;;;;;5113417;28;20102;-80
2021/12/31 07:57:41;;;;;;;5.72;2.03;;;13.10;96.90;;;;;;5079875;28;20467;-78
2021/12/31 08:00:07;;;;;;;5.22;1.30;;;13.10;96.90;;;;;;5113959;28;20024;-78
2021/12/31 08:02:32;;;;;;;7.47;1.85;;;13.10;97.00;;;;;;5114636;28;20479;-78
2021/12/31 08:04:58;;;;;;;6.47;1.55;;;13.10;97.00;;;;;;5114290;28;20039;-80
2021/12/31 08:07:24;;;;;;;5.72;1.70;;;13.10;97.00;;;;;;5096308;28;20020;-73
2021/12/31 08:09:49;;;;;;;4.93;1.83;;;13.10;97.00;;;;;;5114793;28;20471;-74
2021/12/31 08:12:15;;;;;;;5.47;1.50;;;13.00;97.00;;;;;;5109421;28;20183;-74
2021/12/31 08:14:40;;;;;;;6.10;1.70;;;13.10;97.00;;;;;;5076719;28;20384;-74
2021/12/31 08:17:07;;;;;;;5.97;1.60;;;13.00;97.30;;;;;;5093388;28;20818;-74
2021/12/31 08:19:33;;;;;;;9.35;1.60;;;13.10;97.10;;;;;;5093504;28;20476;-74
2021/12/31 08:21:58;;;;;;;9.55;1.90;;;13.00;97.30;;;;;;5113170;28;20084;-73
2021/12/31 08:24:24;;;;;;;6.82;2.00;;;13.00;97.10;;;;;;5107369;28;20039;-73
2021/12/31 08:26:49;;;;;;;7.28;1.40;;;13.00;97.10;;;;;;5090527;28;20483;-74
2021/12/31 08:29:15;;;;;;;6.78;1.67;;;13.00;97.10;;;;;;5104114;28;20026;-74
2021/12/31 08:31:41;;;;;;;5.20;1.65;;;13.00;97.10;;;;;;5109834;28;20135;-75
2021/12/31 08:34:09;;;;;;;3.63;1.50;;;13.00;97.10;;;;;;5111400;28;20036;-78
2021/12/31 08:36:35;;;;;;;7.68;1.77;;;13.00;97.10;;;;;;5108838;28;20119;-76
2021/12/31 08:39:08;;;;;;;6.03;1.70;;;13.00;97.10;;;;;;5101879;28;20391;-75
2021/12/31 08:41:38;;;;;;;6.22;1.65;;;13.00;97.10;;;;;;5105092;28;20019;-75
2021/12/31 08:44:04;;;;;;;5.20;1.77;;;13.00;97.10;;;;;;5112164;28;20019;-76
2021/12/31 08:46:31;;;;;;;6.68;2.00;;;13.00;97.10;;;;;;5113484;28;20085;-73
2021/12/31 08:48:57;;;;;;;6.10;1.52;;;13.00;97.00;;;;;;5112087;28;20460;-74
2021/12/31 08:51:24;;;;;;;6.20;1.83;;;13.00;97.00;;;;;;5078627;28;20028;-74
2021/12/31 08:53:50;;;;;;;3.70;1.30;;;13.00;97.00;;;;;;5098932;28;20103;-73
2021/12/31 08:56:16;;;;;;;6.75;2.05;;;13.00;97.00;;;;;;5102170;28;20107;-73
2021/12/31 08:58:41;;;;;;;7.03;1.65;;;13.00;96.90;;;;;;5078471;28;20027;-73
2021/12/31 09:01:07;;;;;;;5.70;1.45;;;13.00;96.90;;;;;;5105435;28;20533;-74
2021/12/31 09:03:33;;;;;;;7.10;1.50;;;13.00;96.90;;;;;;5101739;28;20032;-76
2021/12/31 09:05:58;;;;;;;6.00;2.15;;;13.10;96.90;;;;;;5111500;28;20328;-73
2021/12/31 09:08:24;;;;;;;7.07;1.88;;;13.00;96.80;;;;;;5103891;28;20027;-73
2021/12/31 09:10:50;;;;;;;5.93;1.73;;;13.10;96.80;;;;;;5105666;28;20115;-73
2021/12/31 09:13:15;;;;;;;6.75;1.63;;;13.10;96.70;;;;;;5080350;28;20517;-73
2021/12/31 09:15:41;;;;;;;4.20;1.73;;;13.10;96.70;;;;;;5102922;28;20038;-74
2021/12/31 09:18:07;;;;;;;5.18;1.48;;;13.10;96.60;;;;;;5111190;28;20031;-73
2021/12/31 09:20:33;;;;;;;4.45;1.50;;;13.10;96.60;;;;;;5092581;28;20020;-74
2021/12/31 09:22:58;;;;;;;7.97;2.22;;;13.10;96.60;;;;;;5096176;28;20020;-73
2021/12/31 09:25:24;;;;;;;7.13;2.05;;;13.10;96.50;;;;;;5111808;28;20027;-73
2021/12/31 09:27:50;;;;;;;5.22;1.40;;;13.10;96.40;;;;;;5103328;28;20020;-73
2021/12/31 09:30:16;;;;;;;5.95;1.60;;;13.10;96.40;;;;;;5095520;28;20031;-73
2021/12/31 09:32:42;;;;;;;8.48;1.70;;;13.20;96.50;;;;;;5104316;28;20142;-74
2021/12/31 09:35:08;;;;;;;4.78;1.65;;;13.20;96.40;;;;;;5111897;28;20446;-73
2021/12/31 09:37:34;;;;;;;4.97;1.58;;;13.20;96.40;;;;;;5102825;28;20036;-74
2021/12/31 09:40:00;;;;;;;6.93;1.95;;;13.20;96.30;;;;;;5091462;28;20074;-74
2021/12/31 09:42:26;;;;;;;6.90;2.30;;;13.20;96.40;;;;;;5091581;28;20055;-73
2021/12/31 09:44:52;;;;;;;8.90;2.13;;;13.20;96.30;;;;;;5107087;28;20480;-75
2021/12/31 09:47:18;;;;;;;5.43;1.50;;;13.20;96.30;;;;;;5091239;28;20042;-72
2021/12/31 09:49:46;;;;;;;5.22;1.70;;;13.20;96.20;;;;;;5099256;28;20369;-72
2021/12/31 09:52:13;;;;;;;4.88;1.50;;;13.30;96.20;;;;;;5092711;28;20115;-71
2021/12/31 09:54:47;;;;;;;4.00;1.45;;;13.30;96.20;;;;;;5107983;28;20062;-72
2021/12/31 09:57:13;;;;;;;;;;;13.30;96.20;;;;;;5093758;28;20028;-72
2021/12/31 09:59:40;;;;;;;8.15;2.30;;;13.40;96.10;;;;;;5101137;28;19908;-73
2021/12/31 10:02:06;;;;;;;4.35;1.63;;;13.40;96.10;;;;;;5086917;28;20402;-73
2021/12/31 10:04:59;;;;;;;3.90;1.60;;;13.40;96.00;;;;;;5109605;28;20487;-72
2021/12/31 10:07:28;;;;;;;4.40;1.35;;;13.40;95.90;;;;;;5089811;28;20080;-81
2021/12/31 10:10:12;;;;;;;5.95;2.53;;;13.40;96.10;;;;;;5110095;28;20503;-77
2021/12/31 10:12:58;;;;;;;14.32;5.68;;;13.40;95.80;;;;;;5112361;28;20024;-77
2021/12/31 10:15:25;;;;;;;7.15;3.35;;;13.50;95.80;;;;;;5112235;28;20118;-76
2021/12/31 10:17:52;;;;;;;6.70;2.05;;;13.40;95.90;;;;;;5096388;28;20073;-76
2021/12/31 10:20:19;;;;;;;6.07;1.50;;;13.40;95.80;;;;;;5115597;28;20016;-76
2021/12/31 10:22:46;;;;;;;4.32;1.45;;;13.40;95.70;;;;;;5116369;28;20024;-78
2021/12/31 10:25:19;;;;;;;5.97;1.20;;;13.40;95.70;;;;;;5116766;28;20576;-77
2021/12/31 10:27:44;;;;;;;6.27;1.97;;;13.50;95.70;;;;;;5115391;28;20564;-76
2021/12/31 10:30:10;;;;;;;5.18;1.55;;;13.40;95.60;;;;;;5116254;28;20055;-76
2021/12/31 10:32:42;;;;;;;5.85;1.98;;;13.40;95.70;;;;;;5114857;28;20043;-76
2021/12/31 10:35:29;;;;;;;4.70;1.58;;;13.50;95.70;;;;;;5114256;28;20538;-78
2021/12/31 10:38:01;;;;;;;4.65;1.45;;;13.40;95.70;;;;;;5114225;28;20039;-77
2021/12/31 10:40:27;;;;;;;10.00;3.25;;;13.50;95.70;;;;;;5114807;28;20058;-77
2021/12/31 10:43:15;;;;;;;5.55;2.03;;;13.50;95.90;;;;;;5114564;28;20019;-78
2021/12/31 10:45:54;;;;;;;5.00;1.55;;;13.60;95.70;;;;;;5116684;28;20487;-80
2021/12/31 10:48:20;;;;;;;5.50;1.30;;;13.60;95.60;;;;;;5116653;28;20020;-79
2021/12/31 10:50:52;;;;;;;3.08;1.30;;;13.60;95.50;;;;;;5114595;28;20039;-76
2021/12/31 10:53:34;;;;;;;4.95;1.10;;;13.60;95.50;;;;;;5116073;28;20418;-81
2021/12/31 10:56:11;;;;;;;5.85;0.98;;;13.80;95.60;;;;;;5114801;28;20020;-79
2021/12/31 10:58:39;;;;;;;3.35;1.00;;;13.90;95.50;;;;;;5097585;28;20054;-76
2021/12/31 11:01:07;;;;;;;5.78;1.63;;;14.00;95.30;;;;;;5115043;28;20020;-77
2021/12/31 11:03:35;;;;;;;6.15;1.48;;;14.00;95.00;;;;;;5116261;28;20031;-78
2021/12/31 11:06:02;;;;;;;3.40;1.10;;;14.00;94.90;;;;;;5114361;28;20057;-78
2021/12/31 11:08:31;;;;;;;5.82;1.65;;;14.10;95.00;;;;;;5115946;28;20031;-78
2021/12/31 11:10:57;;;;;;;4.68;1.50;;;14.10;94.70;;;;;;5115294;28;20448;-78
2021/12/31 11:13:28;;;;;;;3.67;1.50;;;14.10;94.50;;;;;;5115256;28;20020;-77
2021/12/31 11:15:55;;;;;;;4.85;1.58;;;14.00;94.40;;;;;;5115788;28;20093;-78
2021/12/31 11:18:23;;;;;;;9.52;1.75;;;14.00;94.50;;;;;;5103182;28;20089;-77
2021/12/31 11:20:51;;;;;;;2.83;1.05;;;14.00;94.50;;;;;;5095002;28;20019;-77
2021/12/31 11:23:22;;;;;;;5.25;1.52;;;13.90;94.50;;;;;;5093505;28;20028;-74
2021/12/31 11:26:28;;;;;;;5.72;1.45;;;14.00;94.50;;;;;;5092880;28;20020;-73
2021/12/31 11:28:55;;;;;;;6.45;2.47;;;14.00;94.50;;;;;;5082883;28;20469;-74
2021/12/31 11:31:22;;;;;;;5.70;2.20;;;14.00;94.40;;;;;;5102251;28;20038;-74
2021/12/31 11:34:11;;;;;;;3.67;1.30;;;14.10;94.50;;;;;;5114717;28;20102;-73
2021/12/31 11:36:38;;;;;;;4.32;1.27;;;14.10;94.30;;;;;;5113891;28;20043;-73
2021/12/31 11:39:23;;;;;;;5.95;1.67;;;14.10;94.20;;;;;;5115334;28;20395;-73
2021/12/31 11:41:48;;;;;;;;;;;14.20;94.20;;;;;;5115242;28;20038;-74
2021/12/31 11:44:15;;;;;;;6.18;1.55;;;14.30;94.20;;;;;;5112285;28;19987;-74
2021/12/31 11:46:43;;;;;;;6.88;1.30;;;14.40;94.10;;;;;;5113795;28;20031;-73
2021/12/31 11:49:21;;;;;;;4.80;1.25;;;14.40;94.00;;;;;;5112994;28;20052;-73
2021/12/31 11:52:07;;;;;;;3.40;0.95;;;14.40;93.80;;;;;;5109273;28;20023;-74
2021/12/31 11:54:40;;;;;;;5.20;1.20;;;14.40;93.80;;;;;;5113363;28;20383;-74
2021/12/31 11:57:12;;;;;;;7.45;3.10;;;14.60;94.20;;;;;;5113135;28;20084;-75
2021/12/31 11:59:52;;;;;;;7.28;2.38;;;15.00;95.10;;;;;;5112673;28;20451;-75
2021/12/31 12:02:31;;;;;;;7.28;2.05;;;15.50;94.70;;;;;;5113988;28;20031;-74
2021/12/31 12:05:02;;;;;;;3.10;1.38;;;15.80;93.50;;;;;;5112258;28;20069;-76
2021/12/31 12:07:34;;;;;;;5.43;1.48;;;15.90;92.30;;;;;;5112444;28;20037;-73
2021/12/31 12:10:00;;;;;;;7.05;1.45;;;15.80;91.70;;;;;;5113898;28;20051;-74
2021/12/31 12:12:28;;;;;;;5.47;1.50;;;15.70;91.90;;;;;;5113644;28;20518;-74
2021/12/31 12:14:58;;;;;;;5.45;2.75;;;15.50;92.30;;;;;;5113179;28;20055;-74
2021/12/31 12:17:29;;;;;;;6.13;2.50;;;15.30;92.60;;;;;;5112735;28;20119;-73
2021/12/31 12:20:01;;;;;;;8.02;3.30;;;15.10;93.00;;;;;;5112760;28;20036;-73
2021/12/31 12:22:32;;;;;;;6.50;2.42;;;15.00;93.20;;;;;;5112754;28;20120;-74
2021/12/31 12:25:20;;;;;;;5.85;2.80;;;14.90;93.50;;;;;;5114307;28;20545;-74
2021/12/31 12:27:48;;;;;;;5.65;2.13;;;14.80;93.70;;;;;;5094070;28;20055;-74
2021/12/31 12:30:15;;;;;;;7.07;2.63;;;14.70;93.80;;;;;;5109641;28;20040;-75
2021/12/31 12:35:15;;;;;;;5.90;2.30;;;14.60;93.80;;;;;;5075473;28;20442;-75
2021/12/31 12:37:41;;;;;;;9.15;2.50;;;14.60;93.90;;;;;;5091008;28;20059;-74
2021/12/31 12:40:08;;;;;;;12.13;3.20;;;14.70;94.10;;;;;;5081172;28;20380;-74
2021/12/31 12:42:34;;;;;;;5.65;2.20;;;15.20;94.50;;;;;;5113838;28;20032;-75
2021/12/31 12:45:04;;;;;;;6.75;1.60;;;15.60;94.20;;;;;;5113954;28;20036;-75
2021/12/31 12:47:30;;;;;;;8.50;1.75;;;16.20;93.90;;;;;;5113920;28;20024;-75
2021/12/31 12:50:00;;;;;;;4.57;1.73;;;16.50;91.50;;;;;;5112836;28;20428;-75
2021/12/31 12:52:26;;;;;;;7.88;3.30;;;16.70;91.70;;;;;;5112473;28;20057;-75
2021/12/31 12:55:08;;;;;;;5.93;2.35;;;17.10;90.80;;;;;;5112691;28;20035;-74
2021/12/31 12:57:33;;;;;;;5.65;1.95;;;17.10;89.60;;;;;;5111631;28;20027;-75
2021/12/31 12:59:59;;;;;;;5.07;1.55;;;17.20;88.70;;;;;;5112327;28;20379;-75